Tiempo atmosférico en la estación meteorológica de San Cristóbal de La Laguna,Llano de los Loros, Santa Cruz de Tenerife (868 m.)



Fecha
DESCASC
Temp. máxima en grados centígrados (hora)
DESCASC
Temp. mínima en grados centígrados (hora)
DESCASC
Temp. media en grados centígrados
DESCASC
Racha de viento máxima en m/sg (hora)
DESCASC
Velocidad máxima media en intervalos de 10 minutos(hora)
DESCASC
Precipitaciones diarias en mm
DESCASC
Precipitaciones de 00:00 a 06:00 en mm
DESCASC
Precipitaciones de 06:00 a 12:00 en mm
DESCASC
Precipitaciones de 12:00 a 18:00 en mm
DESCASC
Precipitaciones de 18:00 a 24:00 en mm
DESCASC
17-10-2019 19.6 (13:30) 12.5 (08:00) 16.1 12.22 (09:40) 6.11 (09:40) 0 0 0 0 0
16-10-2019 20.5 (12:00) 12.3 (22:40) 16.4 8.89 (20:30) 5.83 (20:30) 0 0 0 0 0
15-10-2019 20 (14:00) 12.7 (08:40) 16.3 10 (01:10) 5.83 (18:00) 2 1.6 0.4 0 0
14-10-2019 16.6 (15:40) 13.3 (22:10) 15 12.78 (20:00) 7.78 (19:40) 8.4 4.2 3.8 0.4 0
13-10-2019 24.7 (12:30) 11.4 (00:00) 18.1 7.22 (14:30) 3.61 (22:00) 0 0 0 0 0
12-10-2019 26 (14:00) 12.3 (00:00) 19.2 11.39 (00:20) 4.72 (01:00) 0 0 0 0 0
10-10-2019 20.1 (13:10) 14 (00:00) 17.1 10 (00:10) 6.39 (00:20) 0 0 0 0 0
09-10-2019 18.5 (14:00) 13.5 (00:00) 16 15.28 (03:00) 10.28 (04:30) 0 0 0 0 0
08-10-2019 28.8 (14:50) 14.1 (00:00) 21.4 11.94 (21:50) 8.61 (22:10) 0 0 0 0 0
07-10-2019 26.6 (13:00) 14.5 (00:00) 20.6 11.39 (05:20) 6.39 (20:40) 0 0 0 0 0
06-10-2019 18.1 (12:20) 14 (00:00) 16.1 14.17 (00:30) 8.61 (00:20) 1 0.6 0.4 0 0
05-10-2019 20.4 (00:00) 15 (23:40) 17.7 15.28 (21:20) 9.17 (02:40) 3.9 0 1.4 2.1 0.4
04-10-2019 26.3 (14:20) 15.3 (00:00) 20.8 13.33 (04:50) 8.89 (20:40) 0 0 0 0 0
03-10-2019 31.3 (13:30) 18.8 (00:00) 25 12.5 (22:50) 6.11 (18:40) 0 0 0 0 0
02-10-2019 36.3 (14:30) 21 (00:00) 28.6 10 (08:50) 5.83 (09:10) 0 0 0 0 0
01-10-2019 36.3 (13:00) 20.9 (00:00) 28.6 11.39 (09:50) 6.39 (09:50) 0 0 0 0 0
30-09-2019 36.1 (12:50) 20.8 (00:00) 28.4 10.28 (20:00) 7.22 (20:00) 0 0 0 0 0
29-09-2019 30 (16:50) 16.5 (00:00) 23.3 8.61 (22:50) 5.83 (22:50) 0 0 0 0 0
28-09-2019 26 (14:30) 14.2 (00:00) 20.1 12.22 (02:50) 7.5 (02:50) 0 0 0 0 0
27-09-2019 19.6 (14:10) 14.5 (00:00) 17.1 14.72 (06:00) 7.78 (02:50) 0.2 0 0.2 0 0
26-09-2019 20.4 (14:00) 14.6 (00:00) 17.5 13.61 (03:50) 7.5 (22:10) 0.8 0.6 0.2 0 0
25-09-2019 23.7 (12:40) 14.2 (00:00) 19 16.11 (05:40) 11.39 (06:20) 0 0 0 0 0
24-09-2019 17.8 (14:10) 14.2 (00:00) 16 14.72 (08:30) 8.89 (08:30) 0 0 0 0 0
23-09-2019 18.7 (13:20) 14.2 (00:00) 16.5 13.33 (15:50) 8.06 (11:40) 0 0 0 0 0
22-09-2019 24.1 (13:40) 15.3 (00:00) 19.7 10.56 (12:20) 6.67 (12:10) 3.8 0 0 0 3.8
21-09-2019 27.2 (15:50) 14.4 (00:00) 20.8 8.33 (23:59) 5.83 (23:59) 0 0 0 0 0
20-09-2019 25.2 (11:50) 14 (00:00) 19.6 15 (00:50) 10.56 (00:30) 0 0 0 0 0

Gráficas

Temp. máximas Temp. mínimas Temp. medias Precipitaciones Rachas de viento máximas Velocidades máximas media en intervalos de 10 minutos

Datos horarios

Fecha y hora oficial Temperatura (ºC) Velocidad del viento (km/h) Dirección del viento Racha (km/h) Dirección de racha Precipitación (mm) Presión (hPa) Tendencia (hPa) Humedad (%)
2019-10-19 23:00:00 14.6 33 Noroeste 50 Noroeste 0 -- -- 98
2019-10-19 22:00:00 14.6 33 Noroeste 49 Noroeste 0 -- -- 99
2019-10-19 21:00:00 14.6 32 Noroeste 48 Noroeste 0 -- -- 97
2019-10-19 20:00:00 14.6 32 Noroeste 48 Noroeste 0 -- -- 97
2019-10-19 19:00:00 15.5 27 Noroeste 40 Noroeste 0 -- -- 90
2019-10-19 18:00:00 17 25 Noroeste 38 Norte 0 -- -- 80
2019-10-19 17:00:00 17.7 24 Noroeste 38 Oeste 0 -- -- 78
2019-10-19 16:00:00 18.3 18 Noroeste 33 Noroeste 0 -- -- 73
2019-10-19 15:00:00 18.5 15 Noroeste 34 Norte 0 -- -- 73
2019-10-19 14:00:00 18.1 14 Norte 33 Noroeste 0 -- -- 75
2019-10-19 13:00:00 17.8 17 Noroeste 39 Noroeste 0 -- -- 79
2019-10-19 12:00:00 17.8 14 Noroeste 37 Noroeste 0 -- -- 83
2019-10-19 11:00:00 16.4 18 Noroeste 38 Noroeste 0 -- -- 90
2019-10-19 10:00:00 15.5 24 Noroeste 41 Noroeste 0 -- -- 91
2019-10-19 09:00:00 14.4 24 Noroeste 40 Noroeste 0 -- -- 96
2019-10-19 08:00:00 13.6 19 Norte 33 Norte 0 -- -- 98
2019-10-19 07:00:00 13.6 23 Norte 39 Norte 0 -- -- 99
2019-10-19 06:00:00 13.6 23 Norte 38 Norte 0 -- -- 97
2019-10-19 05:00:00 13.6 20 Norte 35 Norte 0 -- -- 98
2019-10-19 04:00:00 13.9 21 Norte 36 Norte 0 -- -- 99
2019-10-19 03:00:00 13.7 21 Norte 33 Norte 0 -- -- 98
2019-10-19 02:00:00 14 22 Norte 37 Norte 0 -- -- 98
2019-10-19 01:00:00 13.9 22 Norte 42 Norte 0 -- -- 97
2019-10-19 00:00:00 13.8 24 Norte 45 Noroeste 0 -- -- 97
2019-10-18 23:00:00 13.8 23 Norte 41 Norte 0 -- -- 97
2019-10-18 22:00:00 14 25 Norte 48 Noroeste 0 -- -- 98
2019-10-18 21:00:00 14 24 Norte 39 Norte 0 -- -- 96
2019-10-18 20:00:00 13.9 23 Norte 42 Noroeste 0 -- -- 96
2019-10-18 19:00:00 14.9 22 Norte 42 Noroeste 0 -- -- 91
2019-10-18 18:00:00 15.1 24 Norte 41 Norte 0 -- -- 89
2019-10-18 17:00:00 16.6 19 Noroeste 35 Noroeste 0 -- -- 84
2019-10-18 16:00:00 17.1 21 Noroeste 36 Noroeste 0 -- -- 81
2019-10-18 15:00:00 17.8 14 Noroeste 31 Noroeste 0 -- -- 75
2019-10-18 14:00:00 18.1 11 Noroeste 32 Noroeste 0 -- -- 77
2019-10-18 13:00:00 19.1 8 Noroeste 27 Noroeste 0 -- -- 74
2019-10-18 12:00:00 17.7 12 Noroeste 31 Noroeste 0 -- -- 79
2019-10-18 11:00:00 16 13 Noroeste 32 Noroeste 0 -- -- 85
2019-10-18 10:00:00 14.7 10 Noroeste 30 Noroeste 0 -- -- 94
2019-10-18 09:00:00 14 9 Norte 34 Noroeste 0 -- -- 95
2019-10-18 08:00:00 13.6 12 Noroeste 35 Noroeste 0 -- -- 99
2019-10-18 07:00:00 13.8 16 Norte 40 Norte 0 -- -- 100
2019-10-18 06:00:00 13.8 18 Noroeste 38 Noroeste 0 -- -- 100
2019-10-18 05:00:00 13.5 18 Noroeste 39 Noroeste 0 -- -- 99
2019-10-18 04:00:00 13.2 14 Noroeste 31 Noroeste 0 -- -- 98
2019-10-18 03:00:00 13.2 10 Noroeste 31 Norte 0 -- -- 97
2019-10-18 02:00:00 13.2 10 Norte 30 Norte 0 -- -- 97
2019-10-18 01:00:00 13.2 6 Noroeste 27 Norte 0 -- -- 96
2019-10-18 00:00:00 13.2 12 Norte 30 Norte 0 -- -- 95
2019-10-17 23:00:00 13.4 15 Norte 29 Nordeste 0 -- -- 91
2019-10-17 22:00:00 13.5 12 Norte 26 Nordeste 0 -- -- 82
2019-10-17 21:00:00 14.2 7 Norte 30 Nordeste 0 -- -- 73
2019-10-17 20:00:00 13.6 12 Norte 23 Norte 0 -- -- 85
2019-10-17 19:00:00 14.6 8 Sudeste 20 Nordeste 0 -- -- 77
2019-10-17 18:00:00 17.1 8 Este 22 Este 0 -- -- 67
2019-10-17 17:00:00 17.2 6 Nordeste 23 Norte 0 -- -- 63
2019-10-17 16:00:00 18.4 9 Norte 21 Nordeste 0 -- -- 61
2019-10-17 15:00:00 18.3 5 Noroeste 21 Este 0 -- -- 63
2019-10-17 14:00:00 19 7 Norte 26 Este 0 -- -- 61
2019-10-17 13:00:00 18.5 7 Noroeste 25 Nordeste 0 -- -- 64
2019-10-17 12:00:00 17.7 9 Norte 30 Nordeste 0 -- -- 71
2019-10-17 11:00:00 17.5 8 Norte 27 Norte 0 -- -- 72
2019-10-17 10:00:00 15.2 14 Norte 44 Norte 0 -- -- 82
2019-10-17 09:00:00 14.2 11 Norte 33 Norte 0 -- -- 86
2019-10-17 08:00:00 12.5 16 Norte 35 Nordeste 0 -- -- 94
2019-10-17 07:00:00 12.6 15 Norte 26 Nordeste 0 -- -- 93
2019-10-17 06:00:00 12.7 6 Norte 22 Nordeste 0 -- -- 95
2019-10-17 05:00:00 12.7 10 Norte 28 Nordeste 0 -- -- 92
2019-10-17 04:00:00 13 16 Nordeste 33 Nordeste 0 -- -- 93
2019-10-17 03:00:00 13.3 14 Nordeste 36 Nordeste 0 -- -- 92
2019-10-17 02:00:00 13.3 18 Norte 34 Nordeste 0 -- -- 93
2019-10-17 01:00:00 13.3 12 Norte 28 Nordeste 0 -- -- 87
2019-10-17 00:00:00 13 7 Noroeste 26 Norte 0 -- -- 92
2019-10-16 23:00:00 13.2 4 Noroeste 19 Norte 0 -- -- 89
2019-10-16 22:00:00 13.2 3 Oeste 28 Nordeste 0 -- -- 80
2019-10-16 21:00:00 13.8 17 Norte 32 Nordeste 0 -- -- 85
2019-10-16 20:00:00 14.1 15 Norte 26 Nordeste 0 -- -- 70
2019-10-16 19:00:00 14.8 8 Norte 16 Nordeste 0 -- -- 82
2019-10-16 18:00:00 16.2 7 Sudeste 19 Sudeste 0 -- -- 86
2019-10-16 17:00:00 16.7 8 Este 17 Este 0 -- -- 81
2019-10-16 16:00:00 19 12 Este 29 Este 0 -- -- 73
2019-10-16 15:00:00 16.2 11 Sudeste 29 Este 0 -- -- 84
2019-10-16 14:00:00 16.2 5 Sur 25 Este 0 -- -- 81
2019-10-16 13:00:00 16.5 7 Norte 18 Este 0 -- -- 83
2019-10-16 12:00:00 20.5 8 Sudeste 27 Este 0 -- -- 70
2019-10-16 11:00:00 16.7 7 Sudeste 25 Sudeste 0 -- -- 80
2019-10-16 10:00:00 14.5 7 Nordeste 24 Sudeste 0 -- -- 92
2019-10-16 09:00:00 15.1 5 Sur 20 Norte 0 -- -- 91
2019-10-16 08:00:00 13.5 3 Este 18 Este 0 -- -- 97
2019-10-16 07:00:00 13.7 6 Sudeste 18 Este 0 -- -- 98
2019-10-16 06:00:00 13.7 6 Sudeste 15 Este 0 -- -- 98
2019-10-16 05:00:00 13.5 9 Sudeste 15 Este 0 -- -- 98
2019-10-16 04:00:00 13.3 6 Sudeste 20 Este 0 -- -- 98
2019-10-16 03:00:00 13.1 14 Este 24 Este 0 -- -- 97
2019-10-16 02:00:00 13 10 Sudeste 24 Este 0 -- -- 97
2019-10-16 01:00:00 13.4 13 Este 23 Sudeste 0 -- -- 97
2019-10-16 00:00:00 13.3 9 Este 32 Este 0 -- -- 95
2019-10-15 23:00:00 13.5 12 Este 32 Este 0 -- -- 95
2019-10-15 22:00:00 13.2 18 Este 32 Este 0 -- -- 95
2019-10-15 21:00:00 13 14 Este 33 Este 0 -- -- 93
2019-10-15 20:00:00 13 6 Noroeste 27 Nordeste 0 -- -- 92
2019-10-15 19:00:00 13.8 18 Nordeste 32 Norte 0 -- -- 92
2019-10-15 18:00:00 15.5 21 Norte 33 Norte 0 -- -- 86
2019-10-15 17:00:00 16.7 14 Norte 23 Norte 0 -- -- 79
2019-10-15 16:00:00 16 13 Norte 23 Nordeste 0 -- -- 82
2019-10-15 15:00:00 16 6 Este 21 Este 0 -- -- 85
2019-10-15 14:00:00 20 9 Sudeste 17 Sudeste 0 -- -- 72
2019-10-15 13:00:00 16.8 9 Sur 22 Sudeste 0 -- -- 85
2019-10-15 12:00:00 17.6 13 Este 26 Este 0 -- -- 78
2019-10-15 11:00:00 18.7 15 Este 30 Este 0 -- -- 83
2019-10-15 10:00:00 17.2 10 Este 22 Este 0 -- -- 82
2019-10-15 09:00:00 14 12 Este 26 Este 0 -- -- 97
2019-10-15 08:00:00 12.9 11 Este 30 Nordeste 0.2 -- -- 100
2019-10-15 07:00:00 13.3 5 Este 25 Este 0.2 -- -- 100
2019-10-15 06:00:00 13.5 7 Este 28 Nordeste 0.4 -- -- 100
2019-10-15 05:00:00 13.4 9 Nordeste 27 Nordeste 0.8 -- -- 100
2019-10-15 04:00:00 13.3 13 Nordeste 30 Nordeste 0.4 -- -- 99
2019-10-15 03:00:00 13.5 15 Norte 34 Nordeste 0 -- -- 98
2019-10-15 02:00:00 12.9 15 Norte 36 Nordeste 0 -- -- 93
2019-10-15 01:00:00 13.3 14 Norte 32 Nordeste 0 -- -- 93
2019-10-15 00:00:00 13.3 13 Norte 40 Norte 0 -- -- 94
2019-10-14 23:00:00 13.3 22 Norte 40 Norte 0 -- -- 95
2019-10-14 22:00:00 13.4 23 Norte 35 Norte 0 -- -- 94
2019-10-14 21:00:00 13.5 17 Norte 40 Norte 0 -- -- 97
2019-10-14 20:00:00 13.6 25 Norte 46 Norte 0 -- -- 96
2019-10-14 19:00:00 14.1 16 Norte 34 Norte 0 -- -- 90
2019-10-14 18:00:00 15.6 19 Norte 33 Norte 0 -- -- 75
2019-10-14 17:00:00 16.2 18 Norte 39 Norte 0 -- -- 82
2019-10-14 16:00:00 16.1 15 Norte 32 Norte 0 -- -- 85
2019-10-14 15:00:00 15.9 17 Norte 35 Norte 0 -- -- 86
2019-10-14 14:00:00 16.1 13 Norte 28 Nordeste 0 -- -- 91
2019-10-14 13:00:00 15.3 14 Norte 26 Noroeste 0.4 -- -- 98
2019-10-14 12:00:00 16.1 13 Norte 28 Noroeste 0.2 -- -- 95
2019-10-14 11:00:00 15.1 14 Norte 30 Norte 0.2 -- -- 98
2019-10-14 10:00:00 14.9 12 Norte 28 Norte 0 -- -- 99
2019-10-14 09:00:00 13.9 20 Norte 32 Norte 0.2 -- -- 99
2019-10-14 08:00:00 13.6 13 Norte 26 Nordeste 1.8 -- -- 100
2019-10-14 07:00:00 14.4 8 Norte 30 Norte 1.4 -- -- 100
2019-10-14 06:00:00 14 22 Noroeste 31 Norte 0.8 -- -- 100
2019-10-14 05:00:00 14.3 9 Noroeste 28 Noroeste 0.8 -- -- 99
2019-10-14 04:00:00 14.4 8 Norte 23 Noroeste 1.2 -- -- 99
2019-10-14 03:00:00 14.7 5 Noroeste 15 Noroeste 1.2 -- -- 98
2019-10-14 02:00:00 14.7 5 Norte 24 Oeste 0.2 -- -- 98
2019-10-14 01:00:00 14.9 8 Noroeste 16 Noroeste 0 -- -- 97
2019-10-14 00:00:00 14.9 5 Noroeste 16 Noroeste 0 -- -- 95
2019-10-13 23:00:00 14.4 7 Noroeste 24 Noroeste 0 -- -- 95
2019-10-13 22:00:00 14.5 13 Noroeste 19 Noroeste 0 -- -- 95
2019-10-13 21:00:00 14.2 8 Noroeste 12 Norte 0 -- -- 90
2019-10-13 20:00:00 14.6 4 Noroeste 12 Noroeste 0 -- -- 86
2019-10-13 19:00:00 16.9 3 Oeste 17 Noroeste 0 -- -- 76
2019-10-13 18:00:00 19.8 5 Norte 20 Oeste 0 -- -- 62
2019-10-13 17:00:00 20.9 7 Nordeste 20 Oeste 0 -- -- 55
2019-10-13 16:00:00 21.9 6 Sudoeste 25 Norte 0 -- -- 60
2019-10-13 15:00:00 21.1 9 Noroeste 26 Oeste 0 -- -- 56
2019-10-13 14:00:00 20.4 10 Oeste 23 Oeste 0 -- -- 62
2019-10-13 13:00:00 20 4 Sudoeste 19 Este 0 -- -- 64
2019-10-13 12:00:00 22.2 5 Sur 16 Sudeste 0 -- -- 62
2019-10-13 11:00:00 19.7 4 Noroeste 12 Noroeste 0 -- -- 64
2019-10-13 10:00:00 17 4 Noroeste 15 Norte 0 -- -- 75
2019-10-13 09:00:00 15 8 Noroeste 18 Noroeste 0 -- -- 85
2019-10-13 08:00:00 12.5 10 Noroeste 16 Noroeste 0 -- -- 95
2019-10-13 07:00:00 12.7 6 Noroeste 14 Oeste 0 -- -- 95
2019-10-13 06:00:00 12.6 10 Noroeste 17 Noroeste 0 -- -- 98
2019-10-13 05:00:00 11.7 5 Noroeste 6 Noroeste 0 -- -- 99
2019-10-13 04:00:00 11.4 0 Calma 2 Sur 0 -- -- 99
2019-10-13 03:00:00 11.9 2 Nordeste 4 Este 0 -- -- 98
2019-10-13 02:00:00 12.2 0 Calma 8 Norte 0 -- -- 97
2019-10-13 01:00:00 12.6 6 Noroeste 10 Noroeste 0 -- -- 95
2019-10-13 00:00:00 12.5 4 Nordeste 10 Norte 0 -- -- 97
2019-10-12 23:00:00 13.3 4 Sudoeste 22 Noroeste 0 -- -- 95
2019-10-12 22:00:00 13.8 7 Noroeste 15 Noroeste 0 -- -- 95
2019-10-12 21:00:00 13.8 4 Norte 21 Oeste 0 -- -- 94
2019-10-12 20:00:00 14.1 11 Noroeste 27 Noroeste 0 -- -- 90
2019-10-12 19:00:00 15.2 14 Noroeste 27 Noroeste 0 -- -- 83
2019-10-12 18:00:00 17.7 15 Noroeste 30 Noroeste 0 -- -- 71
2019-10-12 17:00:00 18.9 10 Noroeste 22 Noroeste 0 -- -- 66
2019-10-12 16:00:00 19.4 8 Noroeste 24 Oeste 0 -- -- 64
2019-10-12 15:00:00 20.6 6 Oeste 27 Sur 0 -- -- 59
2019-10-12 14:00:00 26 14 Sudeste 22 Este 0 -- -- 48
2019-10-12 13:00:00 25.2 13 Sudeste 23 Sudeste 0 -- -- 48
2019-10-12 12:00:00 19.4 6 Este 22 Sudeste 0 -- -- 68
2019-10-12 11:00:00 19.3 11 Este 24 Este 0 -- -- 68
2019-10-12 10:00:00 18.2 4 Oeste 27 Oeste 0 -- -- 74
2019-10-12 09:00:00 15.1 9 Noroeste 21 Norte 0 -- -- 85
2019-10-12 08:00:00 13.8 6 Norte 23 Norte 0 -- -- 93
2019-10-12 07:00:00 13.3 8 Noroeste 23 Norte 0 -- -- 93
2019-10-12 06:00:00 12.9 3 Sur 20 Norte 0 -- -- 93
2019-10-12 05:00:00 13.3 5 Nordeste 20 Norte 0 -- -- 94
2019-10-12 04:00:00 13 4 Oeste 24 Oeste 0 -- -- 90
2019-10-12 03:00:00 14.3 7 Noroeste 24 Nordeste 0 -- -- 93
2019-10-12 02:00:00 14.1 9 Noroeste 30 Noroeste 0 -- -- 89
2019-10-12 01:00:00 14.3 17 Noroeste 41 Noroeste 0 -- -- 87
2019-10-12 00:00:00 14.7 12 Noroeste 33 Noroeste 0 -- -- 93
2019-10-11 23:00:00 14.8 8 Norte 31 Noroeste 0 -- -- 92
2019-10-11 22:00:00 14.8 16 Noroeste 36 Noroeste 0 -- -- 93
2019-10-11 21:00:00 14.9 10 Noroeste 27 Noroeste 0 -- -- 94
2019-10-11 20:00:00 14.7 10 Noroeste 34 Noroeste 0 -- -- 95
2019-10-11 19:00:00 15.2 16 Noroeste 33 Noroeste 0 -- -- 92
2019-10-11 18:00:00 16.9 18 Noroeste 29 Noroeste 0 -- -- 79
2019-10-11 17:00:00 16.8 14 Noroeste 37 Noroeste 0 -- -- 81
2019-10-11 16:00:00 17.4 13 Noroeste 29 Norte 0 -- -- 79
2019-10-11 15:00:00 19.1 10 Noroeste 27 Oeste 0 -- -- 70
2019-10-11 14:00:00 19.1 13 Noroeste 26 Noroeste 0 -- -- 71
2019-10-11 13:00:00 17.1 9 Oeste 23 Oeste 0 -- -- 82
2019-10-11 12:00:00 15.9 10 Noroeste 28 Noroeste 0 -- -- 89
2019-10-11 11:00:00 16.1 8 Noroeste 20 Noroeste 0 -- -- 90
2019-10-11 10:00:00 16.1 9 Noroeste 36 Noroeste 0 -- -- 88
2019-10-11 09:00:00 16 8 Noroeste 27 Noroeste 0 -- -- 96
2019-10-11 08:00:00 14.3 9 Noroeste 39 Oeste 0 -- -- 100
2019-10-11 07:00:00 14.5 23 Noroeste 42 Noroeste 0 -- -- 99
2019-10-11 06:00:00 14.4 13 Noroeste 27 Noroeste 0 -- -- 98
2019-10-11 05:00:00 14.2 5 Noroeste 22 Noroeste 0 -- -- 99
2019-10-11 04:00:00 14.4 5 Norte 23 Noroeste 0 -- -- 99
2019-10-11 03:00:00 14.5 12 Noroeste 29 Noroeste 0 -- -- 99
2019-10-11 02:00:00 14.4 6 Noroeste 24 Norte 0 -- -- 98
2019-10-11 01:00:00 14 10 Norte 28 Noroeste 0 -- -- 96
2019-10-11 00:00:00 14 6 Norte 18 Noroeste 0 -- -- 94
2019-10-10 23:00:00 14.7 4 Noroeste 22 Oeste 0 -- -- 95
2019-10-10 22:00:00 14.6 6 Noroeste 18 Norte 0 -- -- 94
2019-10-10 21:00:00 14.9 12 Noroeste 19 Noroeste 0 -- -- 95
2019-10-10 20:00:00 15 4 Noroeste 22 Noroeste 0 -- -- 92
2019-10-10 19:00:00 16.1 5 Norte 24 Noroeste 0 -- -- 86
2019-10-10 18:00:00 17.6 5 Oeste 28 Noroeste 0 -- -- 83
2019-10-10 17:00:00 18.6 8 Noroeste 21 Oeste 0 -- -- 81
2019-10-10 16:00:00 19.2 5 Noroeste 24 Norte 0 -- -- 74
2019-10-10 15:00:00 18 7 Noroeste 22 Noroeste 0 -- -- 79
2019-10-10 14:00:00 19.8 12 Noroeste 30 Noroeste 0 -- -- 73
2019-10-10 13:00:00 19.6 6 Norte 19 Noroeste 0 -- -- 74
2019-10-10 12:00:00 17.5 10 Norte 28 Noroeste 0 -- -- 81
2019-10-10 11:00:00 17.7 12 Noroeste 30 Noroeste 0 -- -- 79
2019-10-10 10:00:00 16.5 12 Norte 29 Oeste 0 -- -- 86
2019-10-10 09:00:00 15.5 10 Norte 32 Norte 0 -- -- 92
2019-10-10 08:00:00 14.6 15 Norte 32 Norte 0 -- -- 96
2019-10-10 07:00:00 14.3 14 Norte 27 Noroeste 0 -- -- 94
2019-10-10 06:00:00 14.6 13 Norte 28 Norte 0 -- -- 94
2019-10-10 05:00:00 14.9 14 Norte 36 Noroeste 0 -- -- 95
2019-10-10 04:00:00 15 17 Norte 34 Nordeste 0 -- -- 96
2019-10-10 03:00:00 14.7 17 Norte 31 Nordeste 0 -- -- 96
2019-10-10 02:00:00 14.8 14 Norte 29 Nordeste 0 -- -- 95
2019-10-10 01:00:00 14.6 14 Norte 36 Noroeste 0 -- -- 94
2019-10-10 00:00:00 14.9 20 Norte 39 Norte 0 -- -- 95
2019-10-09 23:00:00 14.9 25 Noroeste 49 Norte 0 -- -- 94
2019-10-09 22:00:00 14.7 27 Norte 43 Norte 0 -- -- 93
2019-10-09 21:00:00 14.6 23 Norte 44 Noroeste 0 -- -- 93
2019-10-09 20:00:00 14.8 26 Norte 41 Norte 0 -- -- 92
2019-10-09 19:00:00 15.6 24 Norte 41 Noroeste 0 -- -- 89
2019-10-09 18:00:00 17.2 20 Norte 38 Norte 0 -- -- 80
2019-10-09 17:00:00 17.6 21 Norte 37 Norte 0 -- -- 80
2019-10-09 16:00:00 17.8 20 Norte 37 Norte 0 -- -- 78
2019-10-09 15:00:00 18.2 21 Norte 34 Norte 0 -- -- 77
2019-10-09 14:00:00 18.5 18 Norte 37 Norte 0 -- -- 78
2019-10-09 13:00:00 17.3 21 Norte 43 Norte 0 -- -- 83
2019-10-09 12:00:00 17.1 23 Norte 42 Noroeste 0 -- -- 83
2019-10-09 11:00:00 17.1 17 Norte 46 Norte 0 -- -- 82
2019-10-09 10:00:00 15.3 31 Norte 45 Norte 0 -- -- 91
2019-10-09 09:00:00 14.5 31 Norte 44 Norte 0 -- -- 94
2019-10-09 08:00:00 13.5 30 Norte 45 Norte 0 -- -- 96
2019-10-09 07:00:00 13.8 34 Norte 50 Noroeste 0 -- -- 98
2019-10-09 06:00:00 13.7 33 Norte 45 Norte 0 -- -- 97
2019-10-09 05:00:00 13.9 33 Norte 50 Noroeste 0 -- -- 97
2019-10-09 04:00:00 -- -- -- -- -- -- -- -- --
2019-10-09 03:00:00 13.9 35 Noroeste 55 Noroeste 0 -- -- 97
2019-10-09 02:00:00 14 33 Noroeste 46 Norte 0 -- -- 97
2019-10-09 01:00:00 14 30 Noroeste 41 Norte 0 -- -- 97
2019-10-09 00:00:00 14.1 27 Norte 39 Norte 0 -- -- 95
2019-10-08 23:00:00 14.3 25 Norte 41 Norte 0 -- -- 94
2019-10-08 22:00:00 14.5 30 Norte 43 Norte 0 -- -- 92
2019-10-08 21:00:00 14.5 27 Norte 39 Norte 0 -- -- 93
2019-10-08 20:00:00 15.8 14 Norte 29 Norte 0 -- -- 78
2019-10-08 19:00:00 17.1 11 Norte 21 Norte 0 -- -- 69
2019-10-08 18:00:00 21.2 5 Este 26 Norte 0 -- -- 63
2019-10-08 17:00:00 20 12 Norte 27 Norte 0 -- -- 69
2019-10-08 16:00:00 25.2 5 Sudoeste 16 Sur 0 -- -- 57
2019-10-08 15:00:00 28.3 10 Sudeste 18 Sur 0 -- -- 48
2019-10-08 14:00:00 27.8 9 Sudeste 16 Sur 0 -- -- 46
2019-10-08 13:00:00 27.2 8 Sudeste 19 Este 0 -- -- 48
2019-10-08 12:00:00 25.7 6 Sudeste 12 Sudeste 0 -- -- 49
2019-10-08 11:00:00 23.3 5 Este 39 Norte 0 -- -- 54
2019-10-08 10:00:00 17 22 Norte 38 Norte 0 -- -- 80
2019-10-08 09:00:00 15.1 28 Norte 42 Norte 0 -- -- 94
2019-10-08 08:00:00 16.4 17 Norte 33 Norte 0 -- -- 69
2019-10-08 07:00:00 17.3 18 Norte 33 Norte 0 -- -- 60
2019-10-08 06:00:00 17.7 18 Norte 28 Norte 0 -- -- 67
2019-10-08 05:00:00 20.7 7 Nordeste 17 Norte 0 -- -- 27
2019-10-08 04:00:00 20.7 10 Norte 20 Norte 0 -- -- 25
2019-10-08 03:00:00 19.8 7 Nordeste 19 Noroeste 0 -- -- 33
2019-10-08 02:00:00 18.8 9 Nordeste 13 Nordeste 0 -- -- 33
2019-10-08 01:00:00 17.5 4 Norte 20 Norte 0 -- -- 35
2019-10-08 00:00:00 19.5 15 Norte 23 Norte 0 -- -- 44
2019-10-07 23:00:00 18.3 19 Norte 27 Norte 0 -- -- 55
2019-10-07 22:00:00 17.6 9 Norte 36 Norte 0 -- -- 62
2019-10-07 21:00:00 15.9 23 Norte 36 Norte 0 -- -- 85
2019-10-07 20:00:00 16.3 18 Norte 31 Norte 0 -- -- 79
2019-10-07 19:00:00 18.5 5 Norte 22 Norte 0 -- -- 70
2019-10-07 18:00:00 19.2 13 Norte 27 Norte 0 -- -- 72
2019-10-07 17:00:00 21.1 11 Norte 20 Norte 0 -- -- 74
2019-10-07 16:00:00 24.9 4 Sur 17 Sudeste 0 -- -- 59
2019-10-07 15:00:00 25.7 7 Sur 16 Sudeste 0 -- -- 57
2019-10-07 14:00:00 25.6 10 Sudeste 20 Sudeste 0 -- -- 56
2019-10-07 13:00:00 26.6 12 Sudeste 22 Sur 0 -- -- 54
2019-10-07 12:00:00 25.7 13 Sudeste 21 Sudeste 0 -- -- 52
2019-10-07 11:00:00 22.6 9 Sudeste 15 Sudeste 0 -- -- 65
2019-10-07 10:00:00 20.6 6 Sur 12 Este 0 -- -- 70
2019-10-07 09:00:00 18.1 8 Sudeste 28 Norte 0 -- -- 76
2019-10-07 08:00:00 15.6 10 Nordeste 32 Nordeste 0 -- -- 82
2019-10-07 07:00:00 15.5 17 Nordeste 30 Nordeste 0 -- -- 85
2019-10-07 06:00:00 15.2 17 Norte 41 Norte 0 -- -- 89
2019-10-07 05:00:00 15.2 17 Norte 37 Norte 0 -- -- 88
2019-10-07 04:00:00 15.2 18 Norte 37 Nordeste 0 -- -- 91
2019-10-07 03:00:00 16.1 17 Norte 30 Nordeste 0 -- -- 80
2019-10-07 02:00:00 15.8 9 Nordeste 36 Norte 0 -- -- 77
2019-10-07 01:00:00 14.5 22 Norte 34 Noroeste 0 -- -- 97
2019-10-07 00:00:00 14.6 21 Norte 38 Norte 0 -- -- 98
2019-10-06 23:00:00 14.1 25 Norte 41 Norte 0 -- -- 100
2019-10-06 22:00:00 14.7 19 Norte 36 Norte 0 -- -- 100
2019-10-06 21:00:00 14.3 21 Norte 43 Norte 0 -- -- 99
2019-10-06 20:00:00 14.5 19 Norte 44 Norte 0 -- -- 99
2019-10-06 19:00:00 14.9 18 Norte 39 Norte 0 -- -- 97
2019-10-06 18:00:00 15.5 28 Norte 50 Norte 0 -- -- 92
2019-10-06 17:00:00 15.9 20 Norte 43 Nordeste 0 -- -- 92
2019-10-06 16:00:00 16.5 23 Norte 37 Nordeste 0 -- -- 92
2019-10-06 15:00:00 17.8 17 Norte 32 Norte 0 -- -- 83
2019-10-06 14:00:00 18.1 12 Norte 32 Norte 0 -- -- 86
2019-10-06 13:00:00 17.6 17 Norte 35 Norte 0 -- -- 88
2019-10-06 12:00:00 16.8 19 Norte 33 Norte 0 -- -- 95
2019-10-06 11:00:00 16.2 9 Norte 28 Sudeste 0 -- -- 96
2019-10-06 10:00:00 15.6 10 Sudeste 37 Norte 0 -- -- 100
2019-10-06 09:00:00 14.5 19 Norte 40 Nordeste 0.2 -- -- 100
2019-10-06 08:00:00 14.3 18 Norte 47 Noroeste 0 -- -- 100
2019-10-06 07:00:00 14.4 12 Norte 40 Nordeste 0.2 -- -- 100
2019-10-06 06:00:00 14.3 17 Nordeste 36 Nordeste 0 -- -- 100
2019-10-06 05:00:00 14.9 17 Norte 42 Nordeste 0 -- -- 100
2019-10-06 04:00:00 14.7 26 Norte 48 Noroeste 0.2 -- -- 100
2019-10-06 03:00:00 15 26 Norte 48 Noroeste 0.2 -- -- 100
2019-10-06 02:00:00 15.1 27 Norte 49 Noroeste 0.2 -- -- 100
2019-10-06 01:00:00 14.8 27 Norte 51 Norte 0 -- -- 100
2019-10-06 00:00:00 15.1 28 Norte 48 Noroeste 0 -- -- 100
2019-10-05 23:00:00 15.3 25 Norte 51 Norte 0 -- -- 100
2019-10-05 22:00:00 15.4 27 Norte 55 Norte 0.2 -- -- 100
2019-10-05 21:00:00 15.1 30 Norte 54 Norte 0 -- -- 100
2019-10-05 20:00:00 15.6 31 Norte 52 Noroeste 0 -- -- 100
2019-10-05 19:00:00 16 23 Norte 51 Norte 0.2 -- -- 100
2019-10-05 18:00:00 16.8 17 Norte 45 Noroeste 0.4 -- -- 99
2019-10-05 17:00:00 16.8 21 Noroeste 48 Norte 0.2 -- -- 99
2019-10-05 16:00:00 16.7 28 Norte 48 Norte 0 -- -- 99
2019-10-05 15:00:00 16.8 24 Norte 48 Noroeste 0 -- -- 99
2019-10-05 14:00:00 17 22 Norte 52 Norte -- -- -- 99
2019-10-05 13:00:00 17 23 Norte 49 Noroeste 1.2 -- -- 98
2019-10-05 12:00:00 17.7 19 Norte 43 Noroeste 0.4 -- -- 99
2019-10-05 11:00:00 17 20 Norte 42 Norte 0 -- -- 99
2019-10-05 10:00:00 16.3 28 Nordeste 51 Nordeste 0.4 -- -- 99
2019-10-05 09:00:00 16 19 Nordeste 45 Nordeste 0.4 -- -- 99
2019-10-05 08:00:00 15.9 14 Nordeste 39 Nordeste 0 -- -- 99
2019-10-05 07:00:00 15.8 22 Norte 40 Nordeste 0.2 -- -- 99
2019-10-05 06:00:00 15.9 19 Norte 48 Este 0 -- -- 99
2019-10-05 05:00:00 15.6 19 Nordeste 48 Nordeste 0 -- -- 98
2019-10-05 04:00:00 15.5 29 Norte 52 Norte 0 -- -- 97
2019-10-05 03:00:00 15.7 29 Norte 49 Norte 0 -- -- 93
2019-10-05 02:00:00 17.6 30 Norte 45 Norte 0 -- -- 58
2019-10-05 01:00:00 16.4 30 Norte 49 Norte 0 -- -- 83
2019-10-05 00:00:00 20.4 30 Norte 42 Norte 0 -- -- 36
2019-10-04 23:00:00 16.3 27 Norte 39 Norte 0 -- -- 82
2019-10-04 22:00:00 15.3 28 Norte 45 Noroeste 0 -- -- 96
2019-10-04 21:00:00 15.3 31 Noroeste 43 Norte 0 -- -- 96
2019-10-04 20:00:00 15.8 30 Norte 40 Norte 0 -- -- 92
2019-10-04 19:00:00 16.9 27 Norte 40 Noroeste 0 -- -- 85
2019-10-04 18:00:00 19.4 26 Norte 36 Norte 0 -- -- 72
2019-10-04 17:00:00 22.7 22 Norte 34 Norte 0 -- -- 51
2019-10-04 16:00:00 24.6 20 Norte 36 Nordeste 0 -- -- 34
2019-10-04 15:00:00 26 15 Norte 39 Nordeste 0 -- -- 31
2019-10-04 14:00:00 26.1 18 Norte 41 Norte 0 -- -- 25
2019-10-04 13:00:00 25.7 19 Norte 40 Nordeste 0 -- -- 27
2019-10-04 12:00:00 24.2 22 Norte 40 Nordeste 0 -- -- 36
2019-10-04 11:00:00 21.4 24 Norte 46 Norte 0 -- -- 52
2019-10-04 10:00:00 22.2 26 Nordeste 48 Nordeste 0 -- -- 40
2019-10-04 09:00:00 21.1 28 Norte 44 Nordeste 0 -- -- 41
2019-10-04 08:00:00 20 27 Norte 44 Nordeste 0 -- -- 44
2019-10-04 07:00:00 23.1 -- -- -- -- 0 -- -- 26
2019-10-04 06:00:00 22.2 30 Nordeste 46 Nordeste 0 -- -- 33
2019-10-04 05:00:00 21.9 32 Nordeste 48 Norte 0 -- -- 33
2019-10-04 04:00:00 22.6 27 Norte 46 Nordeste 0 -- -- 27
2019-10-04 03:00:00 23.6 18 Norte 41 Nordeste 0 -- -- 23
2019-10-04 02:00:00 24 13 Norte 36 Este 0 -- -- 23
2019-10-04 01:00:00 23.9 11 Nordeste 37 Este 0 -- -- 24
2019-10-04 00:00:00 24.5 13 Nordeste 44 Nordeste 0 -- -- 22
2019-10-03 23:00:00 24.5 15 Norte 45 Este 0 -- -- 23
2019-10-03 22:00:00 24.3 12 Norte 37 Norte 0 -- -- 26
2019-10-03 21:00:00 23.9 11 Norte 33 Nordeste 0 -- -- 18
2019-10-03 20:00:00 24.1 16 Nordeste 39 Norte 0 -- -- 18
2019-10-03 19:00:00 24 17 Nordeste 38 Norte 0 -- -- 23
2019-10-03 18:00:00 25.7 19 Nordeste 37 Nordeste 0 -- -- 22
2019-10-03 17:00:00 26.5 19 Nordeste 38 Nordeste 0 -- -- 25
2019-10-03 16:00:00 27.2 14 Nordeste 33 Nordeste 0 -- -- 26
2019-10-03 15:00:00 30.7 9 Este 33 Este 0 -- -- 24
2019-10-03 14:00:00 30.9 11 Este 38 Sudeste 0 -- -- 27
2019-10-03 13:00:00 29.9 19 Este 43 Este 0 -- -- 21
2019-10-03 12:00:00 28.5 17 Este 42 Este 0 -- -- 23
2019-10-03 11:00:00 28.4 12 Sudeste 25 Sudeste 0 -- -- 28
2019-10-03 10:00:00 25.7 4 Sudoeste 16 Sur 0 -- -- 31
2019-10-03 09:00:00 22.6 4 Sudeste 11 Oeste 0 -- -- 40
2019-10-03 08:00:00 19.3 4 Sur 12 Sur 0 -- -- 45
2019-10-03 07:00:00 19.4 4 Sudeste 10 Sur 0 -- -- 43
2019-10-03 06:00:00 19.2 3 Oeste 10 Sudoeste 0 -- -- 43
2019-10-03 05:00:00 19.2 4 Sudoeste 13 Sur 0 -- -- 40
2019-10-03 04:00:00 20.4 6 Sudeste 25 Este 0 -- -- 34
2019-10-03 03:00:00 20.3 8 Sur 21 Sur 0 -- -- 34
2019-10-03 02:00:00 20.7 3 Oeste 13 Sudoeste 0 -- -- 25
2019-10-03 01:00:00 22.6 4 Oeste 13 Oeste 0 -- -- 15
2019-10-03 00:00:00 24.8 6 Sudoeste 15 Sudoeste 0 -- -- 15
2019-10-02 23:00:00 26.1 7 Oeste 22 Sudeste 0 -- -- 16
2019-10-02 22:00:00 27.1 7 Este 28 Este 0 -- -- 11
2019-10-02 21:00:00 27.1 9 Este 28 Este 0 -- -- 15
2019-10-02 20:00:00 25.8 6 Este 18 Este 0 -- -- 20
2019-10-02 19:00:00 27 7 Este 18 Este 0 -- -- 21
2019-10-02 18:00:00 29.4 11 Este 24 Este 0 -- -- 23
2019-10-02 17:00:00 31.1 14 Sudeste 22 Este 0 -- -- 21
2019-10-02 16:00:00 32.3 12 Sudeste 21 Sudeste 0 -- -- 23
2019-10-02 15:00:00 34.2 13 Sudeste 23 Sudeste 0 -- -- 20
2019-10-02 14:00:00 35.9 17 Sudeste 25 Sudeste 0 -- -- 16
2019-10-02 13:00:00 35.5 17 Sudeste 25 Sudeste 0 -- -- 18
2019-10-02 12:00:00 34.4 17 Sudeste 26 Este 0 -- -- 22
2019-10-02 11:00:00 34 16 Sudeste 31 Este 0 -- -- 18
2019-10-02 10:00:00 31.7 15 Este 32 Este 0 -- -- 18
2019-10-02 09:00:00 28.1 18 Sudeste 36 Este 0 -- -- 18
2019-10-02 08:00:00 23.2 8 Sudeste 27 Sur 0 -- -- 22
2019-10-02 07:00:00 24.2 5 Sudoeste 25 Oeste 0 -- -- 21
2019-10-02 06:00:00 22.8 5 Sudoeste 14 Sudoeste 0 -- -- 25
2019-10-02 05:00:00 21.9 3 Oeste 22 Este 0 -- -- 26
2019-10-02 04:00:00 21.2 3 Noroeste 19 Sudeste 0 -- -- 29
2019-10-02 03:00:00 21.7 6 Sudeste 20 Este 0 -- -- 26
2019-10-02 02:00:00 22.9 3 Sudeste 20 Este 0 -- -- 26
2019-10-02 01:00:00 25.3 10 Este 21 Este 0 -- -- 20
2019-10-02 00:00:00 24.3 9 Este 20 Nordeste 0 -- -- 23
2019-10-01 23:00:00 25.9 7 Este 26 Este 0 -- -- 18
2019-10-01 22:00:00 25.1 18 Este 26 Este 0 -- -- 21
2019-10-01 21:00:00 24.3 13 Este 26 Este 0 -- -- 24
2019-10-01 20:00:00 24.1 13 Este 24 Este 0 -- -- 27
2019-10-01 19:00:00 24.6 12 Este 22 Este 0 -- -- 42
2019-10-01 18:00:00 27.2 11 Sudeste 17 Este 0 -- -- 43
2019-10-01 17:00:00 29.5 9 Sudeste 17 Sudeste 0 -- -- 33
2019-10-01 16:00:00 33 13 Sudeste 22 Sur 0 -- -- 25
2019-10-01 15:00:00 34.9 15 Sudeste 28 Sudeste 0 -- -- 22
2019-10-01 14:00:00 35.7 15 Sudeste 24 Sudeste 0 -- -- 21
2019-10-01 13:00:00 36.3 13 Sudeste 25 Sudeste 0 -- -- 19
2019-10-01 12:00:00 34.2 12 Sur 38 Este 0 -- -- 19
2019-10-01 11:00:00 31.8 19 Sudeste 39 Este 0 -- -- 19
2019-10-01 10:00:00 28.7 18 Sudeste 41 Este 0 -- -- 21
2019-10-01 09:00:00 26.2 17 Este 30 Sudeste 0 -- -- 22
2019-10-01 08:00:00 23.4 12 Este 30 Este 0 -- -- 24
2019-10-01 07:00:00 23.1 15 Este 31 Este 0 -- -- 24
2019-10-01 06:00:00 21 4 Sudoeste 10 Sudoeste 0 -- -- 28
2019-10-01 05:00:00 21.7 3 Noroeste 20 Sudeste 0 -- -- 25
2019-10-01 04:00:00 21 5 Oeste 27 Sudeste 0 -- -- 28
2019-10-01 03:00:00 23.9 13 Sudeste 27 Sudeste 0 -- -- 22
2019-10-01 02:00:00 22.8 10 Sudeste 23 Sudeste 0 -- -- 26
2019-10-01 01:00:00 22.1 5 Sudoeste 10 Sudeste 0 -- -- 26
2019-10-01 00:00:00 22.5 3 Sudoeste 14 Noroeste 0 -- -- 23
2019-09-30 23:00:00 24.5 8 Noroeste 19 Noroeste 0 -- -- 22
2019-09-30 22:00:00 23.3 7 Oeste 28 Nordeste 0 -- -- 27
2019-09-30 21:00:00 27.1 14 Norte 35 Norte 0 -- -- 19
2019-09-30 20:00:00 24.3 26 Norte 37 Norte 0 -- -- 19
2019-09-30 19:00:00 27 11 Norte 22 Norte 0 -- -- 20
2019-09-30 18:00:00 31.2 4 Nordeste 16 Este 0 -- -- 20
2019-09-30 17:00:00 30.9 5 Sur 20 Nordeste 0 -- -- 31
2019-09-30 16:00:00 31.3 5 Sudeste 15 Sur 0 -- -- 37
2019-09-30 15:00:00 34.4 9 Sur 19 Sudeste 0 -- -- 24
2019-09-30 14:00:00 36.1 13 Sudeste 19 Sudeste 0 -- -- 20
2019-09-30 13:00:00 35 11 Sur 18 Sur 0 -- -- 21
2019-09-30 12:00:00 33.2 12 Sudeste 23 Sudeste 0 -- -- 23
2019-09-30 11:00:00 34.1 10 Sudeste 17 Este 0 -- -- 22
2019-09-30 10:00:00 29.2 8 Sudeste 14 Este 0 -- -- 26
2019-09-30 09:00:00 23.3 8 Este 13 Este 0 -- -- 28
2019-09-30 08:00:00 20.9 6 Este 13 Este 0 -- -- 36
2019-09-30 07:00:00 21.8 3 Este 20 Nordeste 0 -- -- 29
2019-09-30 06:00:00 20.9 4 Nordeste 21 Este 0 -- -- 31
2019-09-30 05:00:00 22 4 Sudoeste 17 Noroeste 0 -- -- 29
2019-09-30 04:00:00 22.7 4 Este 22 Nordeste 0 -- -- 30
2019-09-30 03:00:00 24.5 17 Norte 24 Norte 0 -- -- 24
2019-09-30 02:00:00 24.8 15 Norte 27 Norte 0 -- -- 26
2019-09-30 01:00:00 25.1 19 Norte 27 Norte 0 -- -- 26
2019-09-30 00:00:00 25 17 Norte 28 Norte 0 -- -- 25
2019-09-29 23:00:00 24.9 20 Norte 31 Noroeste 0 -- -- 27
2019-09-29 22:00:00 24.8 17 Norte 24 Norte 0 -- -- 33
2019-09-29 21:00:00 24.5 12 Noroeste 17 Norte 0 -- -- 32
2019-09-29 20:00:00 22.4 8 Noroeste 13 Noroeste 0 -- -- 43
2019-09-29 19:00:00 24.7 2 Sudoeste 9 Sudoeste 0 -- -- 40
2019-09-29 18:00:00 27.9 2 Este 11 Sur 0 -- -- 46
2019-09-29 17:00:00 29.4 7 Sudeste 16 Sur 0 -- -- 38
2019-09-29 16:00:00 28.4 10 Sudeste 19 Sudeste 0 -- -- 45
2019-09-29 15:00:00 28.3 9 Sudeste 14 Sudeste 0 -- -- 47
2019-09-29 14:00:00 28.7 10 Sudeste 15 Sudeste 0 -- -- 46
2019-09-29 13:00:00 28.4 11 Sudeste 18 Sudeste 0 -- -- 50
2019-09-29 12:00:00 25.6 10 Sudeste 18 Sudeste 0 -- -- 58
2019-09-29 11:00:00 24.9 7 Sudeste 14 Este 0 -- -- 59
2019-09-29 10:00:00 25.5 7 Este 12 Este 0 -- -- 52
2019-09-29 09:00:00 17.8 3 Nordeste 15 Norte 0 -- -- 80
2019-09-29 08:00:00 17 8 Nordeste 18 Norte 0 -- -- 74
2019-09-29 07:00:00 17.7 9 Norte 17 Norte 0 -- -- 71
2019-09-29 06:00:00 17.7 7 Norte 16 Norte 0 -- -- 70
2019-09-29 05:00:00 16.5 0 Calma 19 Norte 0 -- -- 71
2019-09-29 04:00:00 18.5 7 Norte 14 Norte 0 -- -- 68
2019-09-29 03:00:00 17.2 2 Nordeste 13 Norte 0 -- -- 62
2019-09-29 02:00:00 17.5 0 Calma 8 Nordeste 0 -- -- 56
2019-09-29 01:00:00 18.1 7 Este 11 Este 0 -- -- 57
2019-09-29 00:00:00 18.1 4 Este 8 Este 0 -- -- 58
2019-09-28 23:00:00 17.3 2 Este 8 Nordeste 0 -- -- 65
2019-09-28 22:00:00 15.1 2 Noroeste 9 Este 0 -- -- 83
2019-09-28 21:00:00 15.2 3 Nordeste 19 Norte 0 -- -- 88
2019-09-28 20:00:00 16.1 8 Norte 16 Norte 0 -- -- 90
2019-09-28 19:00:00 18.6 3 Nordeste 25 Norte 0 -- -- 76
2019-09-28 18:00:00 18.6 14 Norte 28 Norte 0 -- -- 77
2019-09-28 17:00:00 20 12 Noroeste 28 Norte 0 -- -- 72
2019-09-28 16:00:00 19.8 15 Norte 28 Noroeste 0 -- -- 75
2019-09-28 15:00:00 24.6 6 Oeste 17 Noroeste 0 -- -- 58
2019-09-28 14:00:00 24.5 6 Sudoeste 23 Este 0 -- -- 57
2019-09-28 13:00:00 22.9 5 Este 21 Noroeste 0 -- -- 61
2019-09-28 12:00:00 23.7 6 Sur 21 Este 0 -- -- 58
2019-09-28 11:00:00 22.4 6 Sudeste 15 Sudeste 0 -- -- 63
2019-09-28 10:00:00 19.2 9 Este 32 Norte 0 -- -- 73
2019-09-28 09:00:00 16.7 18 Norte 33 Norte 0 -- -- 84
2019-09-28 08:00:00 15.2 16 Norte 34 Norte 0 -- -- 89
2019-09-28 07:00:00 14.5 21 Norte 41 Norte 0 -- -- 95
2019-09-28 06:00:00 14.5 21 Norte 37 Norte 0 -- -- 97
2019-09-28 05:00:00 14.5 20 Norte 44 Norte 0 -- -- 98
2019-09-28 04:00:00 14.8 25 Norte 44 Norte 0 -- -- 98
2019-09-28 03:00:00 14.2 26 Norte 44 Norte 0 -- -- 99
2019-09-28 02:00:00 14.5 25 Norte 41 Norte 0 -- -- 98
2019-09-28 01:00:00 14.9 24 Norte 43 Norte 0 -- -- 97
2019-09-28 00:00:00 14.9 23 Norte 37 Norte 0 -- -- 93
2019-09-27 23:00:00 15.4 18 Norte 38 Nordeste 0 -- -- 91
2019-09-27 22:00:00 15.9 20 Norte 33 Norte 0 -- -- 81
2019-09-27 21:00:00 15.5 19 Norte 35 Norte 0 -- -- 89
2019-09-27 20:00:00 15.2 21 Norte 37 Norte 0 -- -- 95
2019-09-27 19:00:00 15.9 21 Norte 40 Norte 0 -- -- 88
2019-09-27 18:00:00 17.3 25 Norte 44 Norte 0 -- -- 84
2019-09-27 17:00:00 17.7 23 Norte 41 Norte 0 -- -- 83
2019-09-27 16:00:00 19 18 Norte 36 Norte 0 -- -- 84
2019-09-27 15:00:00 18.7 23 Norte 42 Norte 0 -- -- 81
2019-09-27 14:00:00 19.3 18 Norte 42 Norte 0 -- -- 78
2019-09-27 13:00:00 18.7 19 Norte 35 Norte 0 -- -- 81
2019-09-27 12:00:00 18.7 18 Norte 36 Noroeste 0 -- -- 79
2019-09-27 11:00:00 17.3 22 Norte 39 Norte 0 -- -- 84
2019-09-27 10:00:00 16.2 22 Norte 48 Noroeste 0 -- -- 93
2019-09-27 09:00:00 15.4 20 Norte 45 Norte 0 -- -- 98
2019-09-27 08:00:00 14.9 24 Norte 42 Norte 0.2 -- -- 99
2019-09-27 07:00:00 14.6 24 Norte 44 Noroeste 0 -- -- 99
2019-09-27 06:00:00 15.1 24 Norte 53 Norte 0 -- -- 99
2019-09-27 05:00:00 14.8 26 Norte 47 Norte 0 -- -- 98
2019-09-27 04:00:00 14.6 24 Norte 46 Norte 0 -- -- 97
2019-09-27 03:00:00 14.7 28 Norte 48 Norte 0 -- -- 97
2019-09-27 02:00:00 14.6 22 Norte 45 Norte 0 -- -- 97
2019-09-27 01:00:00 15.1 24 Norte 38 Norte 0 -- -- 98
2019-09-27 00:00:00 14.7 25 Norte 40 Norte 0 -- -- 95
2019-09-26 23:00:00 14.9 23 Norte 44 Norte 0 -- -- 98
2019-09-26 22:00:00 14.9 24 Norte 41 Norte 0 -- -- 98
2019-09-26 21:00:00 15.5 19 Norte 40 Norte 0 -- -- 97
2019-09-26 20:00:00 15 23 Norte 43 Norte 0 -- -- 93
2019-09-26 19:00:00 15.8 23 Norte 42 Norte 0 -- -- 92
2019-09-26 18:00:00 17.8 18 Norte 32 Norte 0 -- -- 83
2019-09-26 17:00:00 18.4 19 Norte 36 Norte 0 -- -- 80
2019-09-26 16:00:00 18.8 19 Norte 30 Noroeste 0 -- -- 81
2019-09-26 15:00:00 19.1 17 Norte 29 Norte 0 -- -- 77
2019-09-26 14:00:00 20.4 8 Norte 31 Nordeste 0 -- -- 75
2019-09-26 13:00:00 19.4 13 Norte 32 Nordeste 0 -- -- 83
2019-09-26 12:00:00 18.7 10 Nordeste 34 Norte 0 -- -- 86
2019-09-26 11:00:00 17.8 18 Norte 37 Nordeste 0 -- -- 87
2019-09-26 10:00:00 16.9 21 Norte 40 Noroeste 0 -- -- 93
2019-09-26 09:00:00 15.6 21 Norte 39 Nordeste 0 -- -- 99
2019-09-26 08:00:00 15.6 17 Norte 39 Norte 0 -- -- 99
2019-09-26 07:00:00 15 26 Norte 40 Nordeste 0.2 -- -- 99
2019-09-26 06:00:00 15.7 19 Norte 42 Nordeste 0.6 -- -- 99
2019-09-26 05:00:00 16.4 17 Norte 42 Norte 0 -- -- 99
2019-09-26 04:00:00 16.1 24 Norte 49 Norte 0 -- -- 96
2019-09-26 03:00:00 15.6 18 Norte 38 Norte 0 -- -- 96
2019-09-26 02:00:00 15.8 8 Norte 35 Norte 0 -- -- 95
2019-09-26 01:00:00 15.6 8 Oeste 25 Sudeste 0 -- -- 96
2019-09-26 00:00:00 14.9 4 Sudoeste 31 Sur 0 -- -- 93
2019-09-25 23:00:00 15.1 5 Sudoeste 22 Norte 0 -- -- 94
2019-09-25 22:00:00 15.3 8 Sur 28 Norte 0 -- -- 94
2019-09-25 21:00:00 15.2 14 Norte 48 Norte 0 -- -- 95
2019-09-25 20:00:00 15.5 29 Norte 53 Norte 0 -- -- 93
2019-09-25 19:00:00 16.1 29 Norte 49 Norte 0 -- -- 90
2019-09-25 18:00:00 16.9 28 Norte 42 Norte 0 -- -- 86
2019-09-25 17:00:00 18.4 22 Norte 39 Norte 0 -- -- 79
2019-09-25 16:00:00 19.2 16 Norte 32 Noroeste 0 -- -- 74
2019-09-25 15:00:00 20.1 13 Norte 27 Nordeste 0 -- -- 71
2019-09-25 14:00:00 21.5 10 Nordeste 38 Noroeste 0 -- -- 66
2019-09-25 13:00:00 21.9 10 Este 31 Sudeste 0 -- -- 64
2019-09-25 12:00:00 20.6 10 Sur 35 Noroeste 0 -- -- 71
2019-09-25 11:00:00 18.2 17 Norte 44 Norte 0 -- -- 82
2019-09-25 10:00:00 17.4 13 Norte 52 Noroeste 0 -- -- 86
2019-09-25 09:00:00 15.5 33 Norte 48 Noroeste 0 -- -- 95
2019-09-25 08:00:00 14.5 31 Norte 55 Norte 0 -- -- 99
2019-09-25 07:00:00 14.9 38 Noroeste 58 Norte 0 -- -- 98
2019-09-25 06:00:00 14.5 40 Norte 58 Noroeste 0 -- -- 97
2019-09-25 05:00:00 14.5 37 Noroeste 58 Noroeste 0 -- -- 98
2019-09-25 04:00:00 14.4 40 Norte 58 Norte 0 -- -- 98
2019-09-25 03:00:00 14.4 28 Norte 49 Noroeste 0 -- -- 98
2019-09-25 02:00:00 14.5 14 Norte 51 Norte 0 -- -- 98
2019-09-25 01:00:00 14.4 29 Norte 48 Norte 0 -- -- 97
2019-09-25 00:00:00 14.4 9 Norte 29 Norte 0 -- -- 97
2019-09-24 23:00:00 14.3 5 Oeste 40 Norte 0 -- -- 95
2019-09-24 22:00:00 14.4 10 Norte 32 Noroeste 0 -- -- 93
2019-09-24 21:00:00 14.3 15 Norte 43 Norte 0 -- -- 98
2019-09-24 20:00:00 14.8 28 Norte 49 Noroeste 0 -- -- 97
2019-09-24 19:00:00 15.4 26 Noroeste 46 Norte 0 -- -- 92
2019-09-24 18:00:00 16.3 26 Norte 42 Noroeste 0 -- -- 91
2019-09-24 17:00:00 17.2 27 Norte 45 Norte 0 -- -- 85
2019-09-24 16:00:00 17.5 26 Norte 40 Norte 0 -- -- 83
2019-09-24 15:00:00 17.3 22 Norte 40 Oeste 0 -- -- 86
2019-09-24 14:00:00 17.7 23 Noroeste 46 Noroeste 0 -- -- 84
2019-09-24 13:00:00 17.1 17 Norte 39 Noroeste 0 -- -- 89
2019-09-24 12:00:00 16.5 19 Norte 34 Norte 0 -- -- 93
2019-09-24 11:00:00 17.4 16 Noroeste 36 Noroeste 0 -- -- 88
2019-09-24 10:00:00 16.2 22 Noroeste 43 Norte 0 -- -- 89
2019-09-24 09:00:00 15.3 28 Norte 53 Noroeste 0 -- -- 92
2019-09-24 08:00:00 14.2 24 Norte 44 Norte 0 -- -- 99
2019-09-24 07:00:00 14.7 17 Norte 34 Norte 0 -- -- 99
2019-09-24 06:00:00 14.9 15 Norte 30 Norte 0 -- -- 98
2019-09-24 05:00:00 14.7 17 Norte 31 Norte 0 -- -- 97
2019-09-24 04:00:00 14.9 16 Norte 34 Noroeste 0 -- -- 97
2019-09-24 03:00:00 14.7 18 Norte 35 Noroeste 0 -- -- 97
2019-09-24 02:00:00 14.6 14 Norte 33 Norte 0 -- -- 96
2019-09-24 01:00:00 14.6 19 Norte 35 Norte 0 -- -- 95
2019-09-24 00:00:00 14.7 19 Norte 34 Nordeste 0 -- -- 95
2019-09-23 23:00:00 14.8 22 Norte 37 Norte 0 -- -- 97
2019-09-23 22:00:00 14.9 17 Norte 42 Norte 0 -- -- 96
2019-09-23 21:00:00 14.8 15 Norte 31 Norte 0 -- -- 95
2019-09-23 20:00:00 15 16 Norte 33 Noroeste 0 -- -- 93
2019-09-23 19:00:00 16.1 14 Norte 34 Norte 0 -- -- 90
2019-09-23 18:00:00 17.3 23 Norte 42 Norte 0 -- -- 84
2019-09-23 17:00:00 17.8 21 Norte 44 Noroeste 0 -- -- 80
2019-09-23 16:00:00 17.8 24 Norte 48 Norte 0 -- -- 80
2019-09-23 15:00:00 18.2 20 Norte 37 Norte 0 -- -- 79
2019-09-23 14:00:00 18.4 16 Norte 33 Norte 0 -- -- 82
2019-09-23 13:00:00 18 17 Norte 35 Noroeste 0 -- -- 85
2019-09-23 12:00:00 16.5 26 Norte 43 Norte 0 -- -- 96
2019-09-23 11:00:00 15.8 27 Norte 40 Noroeste 0 -- -- 99
2019-09-23 10:00:00 15.9 21 Noroeste 37 Noroeste 0 -- -- 100
2019-09-23 09:00:00 15.4 25 Norte 39 Norte -- -- -- 99
2019-09-23 08:00:00 14.5 27 Norte 39 Norte 0 -- -- 100
2019-09-23 07:00:00 15.1 20 Norte 39 Norte 0 -- -- 100
2019-09-23 06:00:00 14.8 27 Norte 40 Norte 0 -- -- 100
2019-09-23 05:00:00 15 9 Noroeste 34 Norte 0 -- -- 100
2019-09-23 04:00:00 15.1 15 Noroeste 27 Norte 0 -- -- 99
2019-09-23 03:00:00 15.3 7 Noroeste 40 Noroeste 0 -- -- 100
2019-09-23 02:00:00 15.6 29 Noroeste 41 Noroeste 0 -- -- 100
2019-09-23 01:00:00 15 20 Noroeste 35 Noroeste 0 -- -- 99
2019-09-23 00:00:00 15.3 14 Norte 22 Norte 0.2 -- -- 99
2019-09-22 23:00:00 16.2 6 Norte 23 Nordeste 0.4 -- -- 99
2019-09-22 22:00:00 16.7 9 Norte 24 Norte 1.2 -- -- 99
2019-09-22 21:00:00 17.5 7 Norte 27 Norte 1 -- -- 98
2019-09-22 20:00:00 17.5 11 Noroeste 26 Noroeste 0.6 -- -- 98
2019-09-22 19:00:00 18.3 7 Noroeste 27 Noroeste 0.4 -- -- 97
2019-09-22 18:00:00 18.7 16 Noroeste 27 Norte 0 -- -- 96
2019-09-22 17:00:00 19.4 19 Norte 30 Norte 0 -- -- 94
2019-09-22 16:00:00 20.7 13 Norte 30 Norte 0 -- -- 89
2019-09-22 15:00:00 21.2 15 Noroeste 30 Noroeste 0 -- -- 85
2019-09-22 14:00:00 23.1 10 Noroeste 23 Oeste 0 -- -- 73
2019-09-22 13:00:00 22.6 8 Noroeste 38 Noroeste 0 -- -- 77
2019-09-22 12:00:00 20.5 23 Noroeste 36 Noroeste 0 -- -- 85
2019-09-22 11:00:00 19.6 15 Noroeste 28 Noroeste 0 -- -- 90
2019-09-22 10:00:00 20.6 6 Noroeste 21 Norte 0 -- -- 80
2019-09-22 09:00:00 20.1 5 Sur 15 Noroeste 0 -- -- 80
2019-09-22 08:00:00 16.1 9 Noroeste 26 Noroeste 0 -- -- 88
2019-09-22 07:00:00 16.3 18 Noroeste 27 Noroeste 0 -- -- 83
2019-09-22 06:00:00 16.6 22 Noroeste 30 Noroeste 0 -- -- 82
2019-09-22 05:00:00 16.2 17 Noroeste 26 Noroeste 0 -- -- 88
2019-09-22 04:00:00 16.1 18 Noroeste 23 Noroeste 0 -- -- 90
2019-09-22 03:00:00 16 14 Noroeste 21 Noroeste 0 -- -- 90
2019-09-22 02:00:00 15.8 15 Noroeste 23 Noroeste 0 -- -- 90
2019-09-22 01:00:00 15.7 11 Noroeste 31 Noroeste 0 -- -- 93
2019-09-22 00:00:00 15.9 21 Noroeste 30 Noroeste 0 -- -- 96
2019-09-21 23:00:00 15.9 14 Noroeste 28 Noroeste 0 -- -- 96
2019-09-21 22:00:00 16 18 Noroeste 28 Noroeste 0 -- -- 95
2019-09-21 21:00:00 16.2 15 Noroeste 27 Noroeste 0 -- -- 94
2019-09-21 20:00:00 16.8 16 Noroeste 29 Noroeste 0 -- -- 93
2019-09-21 19:00:00 19.6 8 Oeste 17 Oeste 0 -- -- 76
2019-09-21 18:00:00 24.8 5 Sur 11 Sudoeste 0 -- -- 59
2019-09-21 17:00:00 26.7 7 Sudeste 18 Sudeste 0 -- -- 55
2019-09-21 16:00:00 26.2 6 Sudeste 17 Sudeste 0 -- -- 55
2019-09-21 15:00:00 21.5 5 Este 23 Sudoeste 0 -- -- 71
2019-09-21 14:00:00 23.5 5 Este 23 Sudoeste 0 -- -- 60
2019-09-21 13:00:00 22.7 6 Oeste 19 Sudoeste 0 -- -- 56
2019-09-21 12:00:00 22.5 6 Oeste 19 Noroeste 0 -- -- 56
2019-09-21 11:00:00 20.5 10 Noroeste 17 Norte 0 -- -- 66
2019-09-21 10:00:00 19.5 5 Noroeste 22 Noroeste 0 -- -- 70
2019-09-21 09:00:00 16.7 15 Noroeste 28 Noroeste 0 -- -- 87
2019-09-21 08:00:00 14.9 17 Noroeste 26 Norte 0 -- -- 93
2019-09-21 07:00:00 14.9 8 Norte 22 Norte 0 -- -- 85
2019-09-21 06:00:00 14.9 15 Norte 25 Norte 0 -- -- 90
2019-09-21 05:00:00 14.7 18 Noroeste 26 Norte 0 -- -- 98
2019-09-21 04:00:00 14.6 13 Noroeste 25 Norte 0 -- -- 97
2019-09-21 03:00:00 14.8 9 Noroeste 26 Noroeste 0 -- -- 97
2019-09-21 02:00:00 15.2 6 Noroeste 25 Norte 0 -- -- 93
2019-09-21 01:00:00 15.6 6 Nordeste 27 Noroeste 0 -- -- 86
2019-09-21 00:00:00 15 20 Norte 36 Norte 0 -- -- 94
2019-09-20 23:00:00 15.3 24 Norte 32 Norte 0 -- -- 94
2019-09-20 22:00:00 15.7 7 Norte 31 Noroeste 0 -- -- 84
2019-09-20 21:00:00 15.7 22 Norte 37 Norte 0 -- -- 89
2019-09-20 20:00:00 16 20 Noroeste 37 Norte 0 -- -- 91
2019-09-20 19:00:00 17.5 24 Noroeste 44 Noroeste 0 -- -- 87
2019-09-20 18:00:00 20.6 12 Noroeste 24 Noroeste 0 -- -- 72
2019-09-20 17:00:00 21.2 12 Norte 18 Norte 0 -- -- 69
2019-09-20 16:00:00 20.9 9 Noroeste 23 Noroeste 0 -- -- 71
2019-09-20 15:00:00 21.3 10 Norte 34 Oeste 0 -- -- 68
2019-09-20 14:00:00 23 9 Noroeste 26 Oeste 0 -- -- 63
2019-09-20 13:00:00 21.8 8 Norte 23 Noroeste 0 -- -- 62
2019-09-20 12:00:00 25.2 8 Sur 22 Sudoeste 0 -- -- 53
2019-09-20 11:00:00 22.5 5 Sur 19 Sur 0 -- -- 64
2019-09-20 10:00:00 17.5 14 Norte 36 Norte 0 -- -- 79
2019-09-20 09:00:00 15.8 23 Norte 35 Norte 0 -- -- 89
2019-09-20 08:00:00 14.7 26 Norte 38 Norte 0 -- -- 97
2019-09-20 07:00:00 15.2 26 Norte 45 Norte 0 -- -- 98
2019-09-20 06:00:00 14.5 27 Norte 42 Norte 0 -- -- 98
2019-09-20 05:00:00 14.7 28 Norte 42 Noroeste 0 -- -- 98
2019-09-20 04:00:00 14.5 30 Noroeste 44 Norte 0 -- -- 98
2019-09-20 03:00:00 14.5 31 Noroeste 46 Norte 0 -- -- 97
2019-09-20 02:00:00 14.6 30 Noroeste 50 Noroeste 0 -- -- 97
2019-09-20 01:00:00 14.8 36 Noroeste 54 Noroeste 0 -- -- 97
2019-09-20 00:00:00 14.8 34 Norte 48 Noroeste 0 -- -- 96